createdAt,value
2022-11-19T00:00:05.005Z,0.72
2022-11-19T00:00:36.400Z,0.57
2022-11-19T00:01:07.797Z,0.78
2022-11-19T00:01:39.191Z,0.88
2022-11-19T00:02:10.630Z,1.01
2022-11-19T00:02:42.036Z,0.72
2022-11-19T00:03:13.428Z,0.87
2022-11-19T00:03:48.680Z,0.86
2022-11-19T00:04:22.669Z,0.77
2022-11-19T00:04:54.210Z,0.70
2022-11-19T00:05:25.599Z,0.56
2022-11-19T00:05:56.992Z,0.69
2022-11-19T00:06:28.382Z,0.85
2022-11-19T00:06:59.812Z,0.76
2022-11-19T00:07:31.288Z,0.87
2022-11-19T00:08:02.727Z,0.79
2022-11-19T00:08:34.119Z,0.65
2022-11-19T00:09:05.519Z,0.86
2022-11-19T00:09:36.918Z,0.68
2022-11-19T00:10:08.401Z,0.66
2022-11-19T00:10:39.802Z,0.71
2022-11-19T00:11:11.201Z,0.63
2022-11-19T00:11:42.605Z,0.49
2022-11-19T00:12:14.018Z,0.66
2022-11-19T00:12:45.413Z,0.64
2022-11-19T00:13:16.826Z,0.37
2022-11-19T00:13:48.223Z,0.54
2022-11-19T00:14:19.632Z,0.90
2022-11-19T00:14:51.018Z,0.77
2022-11-19T00:15:22.639Z,0.76
2022-11-19T00:15:54.040Z,0.69
2022-11-19T00:16:25.428Z,0.64
2022-11-19T00:16:56.812Z,0.64
2022-11-19T00:17:28.215Z,0.83
2022-11-19T00:17:59.623Z,0.65
2022-11-19T00:18:31.019Z,0.78
2022-11-19T00:19:02.418Z,0.68
2022-11-19T00:19:33.808Z,0.74
2022-11-19T00:20:05.240Z,0.75
2022-11-19T00:20:36.701Z,0.76
2022-11-19T00:21:08.094Z,0.68
2022-11-19T00:21:39.600Z,0.92
2022-11-19T00:22:10.991Z,0.52
2022-11-19T00:22:42.390Z,1.00
2022-11-19T00:23:13.788Z,0.79
2022-11-19T00:23:45.184Z,0.73
2022-11-19T00:24:16.577Z,0.70
2022-11-19T00:24:47.984Z,0.72
2022-11-19T00:25:19.375Z,0.84
2022-11-19T00:25:50.807Z,0.83
2022-11-19T00:26:22.200Z,0.62
2022-11-19T00:26:53.593Z,0.72
2022-11-19T00:27:24.979Z,0.75
2022-11-19T00:27:56.376Z,0.74
2022-11-19T00:28:27.763Z,0.78
2022-11-19T00:28:59.152Z,0.89
2022-11-19T00:29:30.564Z,0.80
2022-11-19T00:30:02.323Z,0.55
2022-11-19T00:30:47.669Z,0.67
2022-11-19T00:31:20.088Z,0.74
2022-11-19T00:31:51.479Z,0.99
2022-11-19T00:32:22.876Z,1.15
2022-11-19T00:32:54.287Z,0.71
2022-11-19T00:33:25.704Z,0.78
2022-11-19T00:33:57.112Z,0.73
2022-11-19T00:34:28.513Z,0.80
2022-11-19T00:34:59.904Z,0.70
2022-11-19T00:35:31.295Z,0.62
2022-11-19T00:36:02.681Z,0.81
2022-11-19T00:36:34.123Z,0.60
2022-11-19T00:37:05.519Z,0.65
2022-11-19T00:37:36.907Z,0.64
2022-11-19T00:38:08.313Z,0.73
2022-11-19T00:38:39.727Z,0.80
2022-11-19T00:39:11.122Z,0.79
2022-11-19T00:39:42.523Z,0.79
2022-11-19T00:40:13.916Z,0.57
2022-11-19T00:40:45.303Z,0.66
2022-11-19T00:41:16.701Z,0.46
2022-11-19T00:41:48.198Z,0.87
2022-11-19T00:42:19.600Z,0.82
2022-11-19T00:42:50.997Z,0.79
2022-11-19T00:43:22.392Z,0.71
2022-11-19T00:43:53.788Z,0.89
2022-11-19T00:44:25.200Z,0.73
2022-11-19T00:44:56.589Z,0.59
2022-11-19T00:45:27.976Z,0.66
2022-11-19T00:45:59.366Z,0.68
2022-11-19T00:46:30.769Z,0.62
2022-11-19T00:47:02.214Z,0.60
2022-11-19T00:47:33.639Z,0.56
2022-11-19T00:48:05.039Z,0.70
2022-11-19T00:48:36.425Z,0.62
2022-11-19T00:49:07.841Z,0.75
2022-11-19T00:49:39.272Z,0.62
2022-11-19T00:50:10.674Z,0.53
2022-11-19T00:50:42.061Z,0.73
2022-11-19T00:51:13.469Z,0.72
2022-11-19T00:51:44.851Z,0.53
2022-11-19T00:52:16.316Z,0.52
2022-11-19T00:52:47.708Z,0.71
2022-11-19T00:53:19.115Z,0.38
2022-11-19T00:53:50.503Z,0.77
2022-11-19T00:54:21.890Z,0.73
2022-11-19T00:54:53.284Z,1.09
2022-11-19T00:55:24.673Z,0.72
2022-11-19T00:55:56.067Z,0.68
2022-11-19T00:56:27.475Z,0.75
2022-11-19T00:56:58.866Z,0.63
2022-11-19T00:57:30.327Z,0.70
2022-11-19T00:58:01.722Z,0.67
2022-11-19T00:58:33.117Z,0.65
2022-11-19T00:59:04.530Z,0.50
2022-11-19T00:59:35.920Z,0.54
2022-11-19T01:00:07.311Z,0.85
2022-11-19T01:00:38.713Z,0.54
2022-11-19T01:01:10.193Z,0.93
2022-11-19T01:01:41.645Z,0.45
2022-11-19T01:02:13.080Z,1.09
2022-11-19T01:02:44.544Z,0.74
2022-11-19T01:03:15.978Z,0.61
2022-11-19T01:03:47.364Z,0.92
2022-11-19T01:04:18.765Z,0.64
2022-11-19T01:04:50.154Z,0.36
2022-11-19T01:05:21.543Z,0.63
2022-11-19T01:05:52.954Z,0.63
2022-11-19T01:06:24.358Z,0.85
2022-11-19T01:06:55.785Z,0.85
2022-11-19T01:07:27.361Z,0.73
2022-11-19T01:07:58.916Z,0.82
2022-11-19T01:08:30.308Z,0.63
2022-11-19T01:09:01.697Z,0.95
2022-11-19T01:09:33.080Z,0.82
2022-11-19T01:10:04.489Z,0.52
2022-11-19T01:10:35.888Z,0.62
2022-11-19T01:11:07.282Z,0.79
2022-11-19T01:11:38.692Z,0.94
2022-11-19T01:12:10.087Z,0.48
2022-11-19T01:12:41.482Z,0.61
2022-11-19T01:13:12.964Z,0.67
2022-11-19T01:13:44.370Z,0.70
2022-11-19T01:14:15.759Z,0.56
2022-11-19T01:14:47.161Z,0.41
2022-11-19T01:15:18.559Z,0.67
2022-11-19T01:15:49.966Z,0.96
2022-11-19T01:16:21.362Z,0.68
2022-11-19T01:16:52.924Z,0.64
2022-11-19T01:17:24.315Z,0.58
2022-11-19T01:17:55.729Z,0.82
2022-11-19T01:18:27.459Z,0.67
2022-11-19T01:18:58.854Z,0.62
2022-11-19T01:19:30.255Z,0.50
2022-11-19T01:20:01.722Z,0.58
2022-11-19T01:20:33.190Z,0.71
2022-11-19T01:21:04.639Z,0.78
2022-11-19T01:21:36.050Z,0.55
2022-11-19T01:22:07.448Z,0.57
2022-11-19T01:22:38.865Z,0.50
2022-11-19T01:23:10.274Z,0.45
2022-11-19T01:23:41.799Z,0.51
2022-11-19T01:24:13.206Z,0.60
2022-11-19T01:24:44.608Z,0.63
2022-11-19T01:25:15.994Z,0.73
2022-11-19T01:25:47.402Z,0.60
2022-11-19T01:26:18.889Z,0.38
2022-11-19T01:26:50.284Z,0.68
2022-11-19T01:27:21.678Z,0.54
2022-11-19T01:27:53.067Z,0.52
2022-11-19T01:28:24.455Z,0.68
2022-11-19T01:28:55.964Z,0.58
2022-11-19T01:29:27.365Z,0.67
2022-11-19T01:29:58.752Z,0.48
2022-11-19T01:30:30.137Z,0.73
2022-11-19T01:31:01.518Z,0.62
2022-11-19T01:31:32.917Z,0.67
2022-11-19T01:32:04.322Z,0.53
2022-11-19T01:32:35.711Z,0.29
2022-11-19T01:33:07.374Z,0.75
2022-11-19T01:33:38.771Z,0.61
2022-11-19T01:34:10.241Z,0.54
2022-11-19T01:34:41.623Z,0.43
2022-11-19T01:35:13.016Z,0.61
2022-11-19T01:35:44.403Z,0.64
2022-11-19T01:36:15.881Z,0.79
2022-11-19T01:36:47.279Z,0.78
2022-11-19T01:37:18.699Z,0.59
2022-11-19T01:37:50.087Z,0.54
2022-11-19T01:38:21.469Z,0.51
2022-11-19T01:38:52.889Z,0.62
2022-11-19T01:39:24.512Z,0.51
2022-11-19T01:39:55.919Z,0.66
2022-11-19T01:40:27.312Z,0.60
2022-11-19T01:40:58.721Z,0.53
2022-11-19T01:41:30.107Z,0.56
2022-11-19T01:42:01.494Z,0.54
2022-11-19T01:42:32.918Z,0.63
2022-11-19T01:43:04.307Z,0.54
2022-11-19T01:43:35.703Z,0.51
2022-11-19T01:44:07.100Z,0.56
2022-11-19T01:44:38.531Z,0.51
2022-11-19T01:45:09.918Z,0.61
2022-11-19T01:45:41.312Z,0.47
2022-11-19T01:46:12.707Z,0.68
2022-11-19T01:46:44.123Z,0.36
2022-11-19T01:47:15.517Z,0.36
2022-11-19T01:47:46.985Z,0.60
2022-11-19T01:48:18.380Z,0.48
2022-11-19T01:48:49.856Z,0.38
2022-11-19T01:49:21.515Z,0.46
2022-11-19T01:49:53.154Z,0.53
2022-11-19T01:50:24.550Z,0.52
2022-11-19T01:50:55.936Z,0.63
2022-11-19T01:51:27.328Z,0.51
2022-11-19T01:51:58.740Z,0.72
2022-11-19T01:52:30.130Z,0.56
2022-11-19T01:53:01.655Z,0.43
2022-11-19T01:53:33.052Z,0.63
2022-11-19T01:54:04.438Z,0.55
2022-11-19T01:54:35.841Z,0.47
2022-11-19T01:55:07.245Z,0.56
2022-11-19T01:55:38.639Z,0.45
2022-11-19T01:56:10.040Z,0.52
2022-11-19T01:56:41.438Z,0.54
2022-11-19T01:57:12.836Z,0.21
2022-11-19T01:57:44.243Z,0.37
2022-11-19T01:58:15.681Z,0.24
2022-11-19T01:58:47.079Z,0.39
2022-11-19T01:59:18.697Z,0.60
2022-11-19T01:59:50.690Z,0.47
2022-11-19T02:00:22.080Z,0.34
2022-11-19T02:00:53.566Z,0.65
2022-11-19T02:01:25.066Z,0.52
2022-11-19T02:01:57.099Z,0.46
2022-11-19T02:02:28.487Z,0.35
2022-11-19T02:02:59.906Z,0.76
2022-11-19T02:03:31.406Z,0.55
2022-11-19T02:04:02.799Z,0.77
2022-11-19T02:04:34.198Z,0.55
2022-11-19T02:05:05.587Z,0.36
2022-11-19T02:05:36.988Z,0.67
2022-11-19T02:06:08.391Z,0.59
2022-11-19T02:06:39.777Z,0.48
2022-11-19T02:07:11.220Z,0.39
2022-11-19T02:07:42.659Z,0.57
2022-11-19T02:08:14.058Z,0.40
2022-11-19T02:08:45.560Z,0.40
2022-11-19T02:09:17.108Z,0.56
2022-11-19T02:09:48.701Z,0.67
2022-11-19T02:10:20.110Z,0.39
2022-11-19T02:10:51.524Z,0.48
2022-11-19T02:11:22.916Z,0.44
2022-11-19T02:11:54.307Z,0.61
2022-11-19T02:12:25.717Z,0.41
2022-11-19T02:12:57.106Z,0.53
2022-11-19T02:13:28.514Z,0.42
2022-11-19T02:14:00.037Z,0.32
2022-11-19T02:14:31.466Z,0.40
2022-11-19T02:15:02.858Z,0.30
2022-11-19T02:15:34.254Z,0.44
2022-11-19T02:16:05.670Z,0.41
2022-11-19T02:16:37.058Z,0.56
2022-11-19T02:17:08.456Z,0.30
2022-11-19T02:17:39.841Z,0.32
2022-11-19T02:18:11.238Z,0.44
2022-11-19T02:18:42.651Z,0.40
2022-11-19T02:19:14.116Z,0.72
2022-11-19T02:19:45.514Z,0.57
2022-11-19T02:20:16.914Z,0.35
2022-11-19T02:20:48.316Z,0.38
2022-11-19T02:21:19.715Z,0.42
2022-11-19T02:21:51.123Z,0.53
2022-11-19T02:22:22.519Z,0.46
2022-11-19T02:22:53.924Z,0.28
2022-11-19T02:23:25.314Z,0.55
2022-11-19T02:23:56.703Z,0.39
2022-11-19T02:24:28.126Z,0.42
2022-11-19T02:24:59.537Z,0.29
2022-11-19T02:25:30.945Z,0.47
2022-11-19T02:26:02.331Z,0.35
2022-11-19T02:26:33.721Z,0.64
2022-11-19T02:27:05.115Z,0.42
2022-11-19T02:27:36.506Z,0.53
2022-11-19T02:28:07.911Z,0.40
2022-11-19T02:28:39.318Z,0.34
2022-11-19T02:29:10.887Z,0.34
2022-11-19T02:29:42.550Z,0.41
2022-11-19T02:30:13.942Z,0.51
2022-11-19T02:30:45.335Z,0.40
2022-11-19T02:31:16.732Z,0.46
2022-11-19T02:31:48.123Z,0.56
2022-11-19T02:32:19.513Z,0.42
2022-11-19T02:32:50.894Z,0.29
2022-11-19T02:33:22.292Z,0.40
2022-11-19T02:33:53.698Z,0.46
2022-11-19T02:34:25.088Z,0.50
2022-11-19T02:34:56.583Z,0.55
2022-11-19T02:35:27.976Z,0.43
2022-11-19T02:35:59.388Z,0.38
2022-11-19T02:36:30.780Z,0.37
2022-11-19T02:37:02.166Z,0.49
2022-11-19T02:37:33.559Z,0.51
2022-11-19T02:38:04.953Z,0.39
2022-11-19T02:38:36.345Z,0.33
2022-11-19T02:39:07.732Z,0.44
2022-11-19T02:39:39.132Z,0.38
2022-11-19T02:40:10.654Z,0.30
2022-11-19T02:40:44.752Z,0.35
2022-11-19T02:41:16.144Z,0.35
2022-11-19T02:41:47.535Z,0.38
2022-11-19T02:42:18.956Z,0.47
2022-11-19T02:42:50.343Z,0.38
2022-11-19T02:43:21.751Z,0.28
2022-11-19T02:43:53.140Z,0.50
2022-11-19T02:44:24.537Z,0.43
2022-11-19T02:44:55.946Z,0.43
2022-11-19T02:45:27.464Z,0.33
2022-11-19T02:45:59.033Z,0.33
2022-11-19T02:46:30.426Z,0.33
2022-11-19T02:47:01.819Z,0.43
2022-11-19T02:47:33.215Z,0.48
2022-11-19T02:48:04.598Z,0.50
2022-11-19T02:48:35.997Z,0.43
2022-11-19T02:49:07.401Z,0.45
2022-11-19T02:49:38.809Z,0.49
2022-11-19T02:50:10.196Z,0.48
2022-11-19T02:50:41.736Z,0.37
2022-11-19T02:51:13.123Z,0.46
2022-11-19T02:51:44.520Z,0.30
2022-11-19T02:52:15.926Z,0.45
2022-11-19T02:52:47.316Z,0.24
2022-11-19T02:53:18.712Z,0.44
2022-11-19T02:53:50.115Z,0.34
2022-11-19T02:54:21.524Z,0.25
2022-11-19T02:54:52.942Z,0.16
2022-11-19T02:55:24.345Z,0.44
2022-11-19T02:55:55.793Z,0.39
2022-11-19T02:56:27.184Z,0.41
2022-11-19T02:56:58.575Z,0.28
2022-11-19T02:57:30.021Z,0.45
2022-11-19T02:58:01.411Z,0.62
2022-11-19T02:58:32.814Z,0.43
2022-11-19T02:59:04.202Z,0.27
2022-11-19T02:59:35.643Z,0.49
2022-11-19T03:00:07.031Z,0.35
2022-11-19T03:00:38.424Z,0.26
2022-11-19T03:01:09.972Z,0.16
2022-11-19T03:01:41.426Z,0.54
2022-11-19T03:02:12.872Z,0.43
2022-11-19T03:02:44.269Z,0.40
2022-11-19T03:03:15.667Z,0.31
2022-11-19T03:03:47.068Z,0.33
2022-11-19T03:04:18.492Z,0.43
2022-11-19T03:04:49.897Z,0.38
2022-11-19T03:05:21.284Z,0.24
2022-11-19T03:05:52.680Z,0.20
2022-11-19T03:06:24.231Z,0.34
2022-11-19T03:06:55.658Z,0.25
2022-11-19T03:07:27.161Z,0.32
2022-11-19T03:07:58.616Z,0.41
2022-11-19T03:08:30.012Z,0.30
2022-11-19T03:09:01.412Z,0.18
2022-11-19T03:09:32.797Z,0.37
2022-11-19T03:10:04.206Z,0.25
2022-11-19T03:10:35.596Z,0.31
2022-11-19T03:11:06.978Z,0.41
2022-11-19T03:11:38.486Z,0.73
2022-11-19T03:12:09.883Z,0.47
2022-11-19T03:12:41.301Z,0.43
2022-11-19T03:13:12.695Z,0.50
2022-11-19T03:13:44.089Z,0.43
2022-11-19T03:14:15.483Z,0.29
2022-11-19T03:14:46.890Z,0.25
2022-11-19T03:15:18.298Z,0.32
2022-11-19T03:15:49.698Z,0.28
2022-11-19T03:16:21.107Z,0.65
2022-11-19T03:16:52.636Z,0.39
2022-11-19T03:17:24.026Z,0.47
2022-11-19T03:17:55.419Z,0.39
2022-11-19T03:18:26.830Z,0.34
2022-11-19T03:18:58.215Z,0.18
2022-11-19T03:19:29.611Z,0.17
2022-11-19T03:20:00.994Z,0.18
2022-11-19T03:20:32.388Z,0.36
2022-11-19T03:21:03.775Z,0.46
2022-11-19T03:21:35.167Z,0.51
2022-11-19T03:22:06.599Z,0.18
2022-11-19T03:22:38.017Z,0.23
2022-11-19T03:23:09.413Z,0.24
2022-11-19T03:23:40.806Z,0.37
2022-11-19T03:24:12.194Z,0.18
2022-11-19T03:24:43.617Z,0.16
2022-11-19T03:25:15.032Z,0.38
2022-11-19T03:25:46.440Z,0.36
2022-11-19T03:26:17.827Z,0.39
2022-11-19T03:26:49.229Z,0.27
2022-11-19T03:27:20.681Z,0.19
2022-11-19T03:27:52.073Z,0.36
2022-11-19T03:28:23.497Z,0.34
2022-11-19T03:28:54.888Z,0.22
2022-11-19T03:29:26.301Z,0.20
2022-11-19T03:29:57.721Z,0.17
2022-11-19T03:30:29.112Z,0.33
2022-11-19T03:31:00.501Z,0.23
2022-11-19T03:31:31.897Z,0.30
2022-11-19T03:32:03.296Z,0.35
2022-11-19T03:32:34.840Z,0.46
2022-11-19T03:33:06.243Z,0.38
2022-11-19T03:33:37.631Z,0.37
2022-11-19T03:34:09.026Z,0.41
2022-11-19T03:34:40.422Z,0.22
2022-11-19T03:35:11.816Z,0.27
2022-11-19T03:35:43.204Z,0.31
2022-11-19T03:36:14.610Z,0.24
2022-11-19T03:36:45.999Z,0.36
2022-11-19T03:37:17.413Z,0.33
2022-11-19T03:37:48.851Z,0.30
2022-11-19T03:38:20.243Z,0.29
2022-11-19T03:38:51.638Z,0.58
2022-11-19T03:39:23.052Z,0.34
2022-11-19T03:39:54.439Z,0.36
2022-11-19T03:40:25.827Z,0.18
2022-11-19T03:40:57.220Z,0.36
2022-11-19T03:41:28.629Z,0.22
2022-11-19T03:42:00.026Z,0.16
2022-11-19T03:42:31.417Z,0.24
2022-11-19T03:43:02.929Z,0.25
2022-11-19T03:43:34.331Z,0.35
2022-11-19T03:44:05.723Z,0.30
2022-11-19T03:44:37.107Z,0.34
2022-11-19T03:45:08.516Z,0.31
2022-11-19T03:45:39.904Z,0.45
2022-11-19T03:46:11.332Z,0.36
2022-11-19T03:46:42.725Z,0.23
2022-11-19T03:47:14.124Z,0.46
2022-11-19T03:47:45.517Z,0.25
2022-11-19T03:48:17.018Z,0.31
2022-11-19T03:48:48.406Z,0.34
2022-11-19T03:49:20.005Z,0.28
2022-11-19T03:49:51.586Z,0.20
2022-11-19T03:50:22.974Z,0.34
2022-11-19T03:50:54.359Z,0.23
2022-11-19T03:51:25.750Z,0.21
2022-11-19T03:51:57.138Z,0.21
2022-11-19T03:52:28.560Z,0.28
2022-11-19T03:53:04.103Z,0.25
2022-11-19T03:53:36.091Z,0.22
2022-11-19T03:54:07.488Z,0.29
2022-11-19T03:54:38.884Z,0.19
2022-11-19T03:55:10.272Z,0.22
2022-11-19T03:55:41.659Z,0.22
2022-11-19T03:56:13.056Z,0.16
2022-11-19T03:56:44.452Z,0.32
2022-11-19T03:57:15.840Z,0.24
2022-11-19T03:57:47.229Z,0.19
2022-11-19T03:58:18.616Z,0.33
2022-11-19T03:58:50.564Z,0.22
2022-11-19T03:59:25.551Z,0.20
2022-11-19T04:00:00.671Z,0.14
2022-11-19T04:00:32.331Z,0.34
2022-11-19T04:01:03.772Z,0.18
2022-11-19T04:01:35.210Z,0.18
2022-11-19T04:02:06.722Z,0.21
2022-11-19T04:02:38.161Z,0.25
2022-11-19T04:03:09.566Z,0.34
2022-11-19T04:03:41.096Z,0.30
2022-11-19T04:04:12.597Z,0.65
2022-11-19T04:04:44.077Z,0.23
2022-11-19T04:05:15.480Z,0.29
2022-11-19T04:05:46.900Z,0.24
2022-11-19T04:06:18.296Z,0.14
2022-11-19T04:06:49.704Z,0.27
2022-11-19T04:07:21.140Z,0.24
2022-11-19T04:07:52.552Z,0.19
2022-11-19T04:08:23.933Z,0.19
2022-11-19T04:08:55.319Z,0.22
2022-11-19T04:09:26.762Z,0.26
2022-11-19T04:09:58.147Z,0.20
2022-11-19T04:10:29.549Z,0.14
2022-11-19T04:11:31.197Z,0.32
2022-11-19T04:12:02.595Z,0.24
2022-11-19T04:12:33.992Z,0.24
2022-11-19T04:13:05.394Z,0.19
2022-11-19T04:13:36.808Z,0.35
2022-11-19T04:14:08.224Z,0.84
2022-11-19T04:14:39.702Z,0.35
2022-11-19T04:15:11.112Z,0.29
2022-11-19T04:15:42.572Z,0.27
2022-11-19T04:16:13.964Z,0.21
2022-11-19T04:16:45.356Z,0.28
2022-11-19T04:17:16.753Z,0.38
2022-11-19T04:17:48.154Z,0.17
2022-11-19T04:18:19.635Z,0.13
2022-11-19T04:18:51.031Z,0.30
2022-11-19T04:19:22.456Z,0.39
2022-11-19T04:19:53.884Z,0.35
2022-11-19T04:20:25.308Z,0.27
2022-11-19T04:20:56.698Z,0.27
2022-11-19T04:21:28.091Z,0.23
2022-11-19T04:21:59.474Z,0.26
2022-11-19T04:22:30.854Z,0.20
2022-11-19T04:23:02.239Z,0.24
2022-11-19T04:23:33.703Z,0.20
2022-11-19T04:24:05.098Z,0.31
2022-11-19T04:24:36.497Z,0.22
2022-11-19T04:25:07.887Z,0.28
2022-11-19T04:25:39.276Z,0.35
2022-11-19T04:26:10.667Z,0.23
2022-11-19T04:26:42.053Z,0.21
2022-11-19T04:27:13.442Z,0.29
2022-11-19T04:27:44.831Z,0.12
2022-11-19T04:28:16.264Z,0.21
2022-11-19T04:28:47.776Z,0.17
2022-11-19T04:29:19.549Z,0.18
2022-11-19T04:29:51.130Z,0.32
2022-11-19T04:30:22.528Z,0.21
2022-11-19T04:30:53.915Z,0.33
2022-11-19T04:31:25.297Z,0.27
2022-11-19T04:31:56.682Z,0.23
2022-11-19T04:32:28.077Z,0.22
2022-11-19T04:32:59.575Z,0.13
2022-11-19T04:33:30.987Z,0.40
2022-11-19T04:34:02.380Z,0.36
2022-11-19T04:34:33.794Z,0.40
2022-11-19T04:35:05.189Z,0.24
2022-11-19T04:35:36.580Z,0.23
2022-11-19T04:36:07.970Z,0.27
2022-11-19T04:36:39.363Z,0.10
2022-11-19T04:37:10.763Z,0.19
2022-11-19T04:37:42.152Z,0.41
2022-11-19T04:38:13.630Z,0.12
2022-11-19T04:38:45.045Z,0.14
2022-11-19T04:39:16.657Z,0.17
2022-11-19T04:39:48.233Z,0.17
2022-11-19T04:40:19.627Z,0.19
2022-11-19T04:40:51.011Z,0.09
2022-11-19T04:41:22.399Z,0.11
2022-11-19T04:41:53.821Z,0.34
2022-11-19T04:42:25.211Z,0.20
2022-11-19T04:42:56.608Z,0.24
2022-11-19T04:43:28.004Z,0.29
2022-11-19T04:43:59.394Z,0.14
2022-11-19T04:44:30.797Z,0.09
2022-11-19T04:45:02.192Z,0.11
2022-11-19T04:45:33.579Z,0.22
2022-11-19T04:46:04.967Z,0.56
2022-11-19T04:46:36.356Z,0.18
2022-11-19T04:47:07.772Z,0.19
2022-11-19T04:47:39.183Z,0.15
2022-11-19T04:48:10.562Z,0.20
2022-11-19T04:48:42.043Z,0.13
2022-11-19T04:49:13.440Z,0.21
2022-11-19T04:49:44.855Z,0.24
2022-11-19T04:50:16.241Z,0.37
2022-11-19T04:50:47.639Z,0.26
2022-11-19T04:51:19.036Z,0.15
2022-11-19T04:51:50.439Z,0.20
2022-11-19T04:52:21.847Z,0.22
2022-11-19T04:52:53.240Z,0.23
2022-11-19T04:53:24.631Z,0.16
2022-11-19T04:53:56.107Z,0.11
2022-11-19T04:54:27.500Z,0.29
2022-11-19T04:54:58.907Z,0.31
2022-11-19T04:55:30.301Z,0.30
2022-11-19T04:56:01.703Z,0.22
2022-11-19T04:56:33.121Z,0.33
2022-11-19T04:57:04.512Z,0.38
2022-11-19T04:57:35.916Z,0.20
2022-11-19T04:58:07.309Z,0.23
2022-11-19T04:58:38.726Z,0.18
2022-11-19T04:59:10.168Z,0.22
2022-11-19T04:59:41.556Z,0.18
2022-11-19T05:00:12.967Z,0.19
2022-11-19T05:00:44.372Z,0.14
2022-11-19T05:01:15.951Z,0.23
2022-11-19T05:01:47.439Z,0.15
2022-11-19T05:02:18.886Z,0.17
2022-11-19T05:02:50.282Z,0.10
2022-11-19T05:03:21.675Z,0.19
2022-11-19T05:03:53.068Z,0.20
2022-11-19T05:04:24.531Z,0.41
2022-11-19T05:04:56.020Z,0.17
2022-11-19T05:05:27.477Z,0.21
2022-11-19T05:05:58.872Z,0.21
2022-11-19T05:06:30.275Z,0.12
2022-11-19T05:07:01.748Z,0.20
2022-11-19T05:07:33.227Z,0.29
2022-11-19T05:08:04.649Z,0.25
2022-11-19T05:08:36.091Z,0.12
2022-11-19T05:09:07.494Z,0.20
2022-11-19T05:09:39.020Z,0.09
2022-11-19T05:10:10.410Z,0.09
2022-11-19T05:10:41.818Z,0.29
2022-11-19T05:11:13.210Z,0.27
2022-11-19T05:11:44.595Z,0.27
2022-11-19T05:12:15.991Z,0.20
2022-11-19T05:12:47.407Z,0.15
2022-11-19T05:13:18.795Z,0.15
2022-11-19T05:13:50.184Z,0.20
2022-11-19T05:14:23.683Z,0.35
2022-11-19T05:14:57.420Z,0.16
2022-11-19T05:15:28.810Z,0.19
2022-11-19T05:16:00.190Z,0.27
2022-11-19T05:16:31.589Z,0.31
2022-11-19T05:17:02.995Z,0.09
2022-11-19T05:17:34.397Z,0.34
2022-11-19T05:18:05.783Z,0.15
2022-11-19T05:18:37.183Z,0.21
2022-11-19T05:19:08.580Z,0.12
2022-11-19T05:19:39.980Z,0.25
2022-11-19T05:20:11.425Z,0.09
2022-11-19T05:20:42.819Z,0.14
2022-11-19T05:21:14.210Z,0.21
2022-11-19T05:21:45.600Z,0.18
2022-11-19T05:22:17.008Z,0.22
2022-11-19T05:22:48.407Z,0.22
2022-11-19T05:23:19.796Z,0.28
2022-11-19T05:23:51.187Z,0.08
2022-11-19T05:24:22.579Z,0.11
2022-11-19T05:24:54.029Z,0.19
2022-11-19T05:25:25.427Z,0.24
2022-11-19T05:25:56.815Z,0.20
2022-11-19T05:26:28.224Z,0.20
2022-11-19T05:26:59.624Z,0.17
2022-11-19T05:27:31.011Z,0.32
2022-11-19T05:28:02.407Z,0.26
2022-11-19T05:28:38.910Z,0.25
2022-11-19T05:29:10.711Z,0.12
2022-11-19T05:29:42.109Z,0.28
2022-11-19T05:30:13.557Z,0.29
2022-11-19T05:30:44.943Z,0.21
2022-11-19T05:31:16.331Z,0.19
2022-11-19T05:31:47.742Z,0.24
2022-11-19T05:32:19.161Z,0.23
2022-11-19T05:32:50.556Z,0.46
2022-11-19T05:33:21.952Z,0.27
2022-11-19T05:33:53.344Z,0.11
2022-11-19T05:34:24.735Z,0.18
2022-11-19T05:34:56.170Z,0.22
2022-11-19T05:35:27.578Z,0.37
2022-11-19T05:35:58.997Z,0.19
2022-11-19T05:36:30.385Z,0.26
2022-11-19T05:37:01.768Z,0.09
2022-11-19T05:37:33.156Z,0.39
2022-11-19T05:38:04.547Z,0.15
2022-11-19T05:38:35.934Z,0.01
2022-11-19T05:39:07.341Z,0.07
2022-11-19T05:39:38.733Z,0.19
2022-11-19T05:40:10.124Z,0.17
2022-11-19T05:40:41.655Z,0.14
2022-11-19T05:41:13.050Z,0.16
2022-11-19T05:41:44.436Z,0.19
2022-11-19T05:42:15.829Z,0.14
2022-11-19T05:42:47.220Z,0.17
2022-11-19T05:43:18.623Z,0.25
2022-11-19T05:43:50.033Z,0.21
2022-11-19T05:44:21.447Z,0.12
2022-11-19T05:44:52.844Z,0.08
2022-11-19T05:45:24.230Z,0.29
2022-11-19T05:45:55.715Z,0.27
2022-11-19T05:46:27.104Z,0.28
2022-11-19T05:46:58.509Z,0.21
2022-11-19T05:47:29.934Z,0.20
2022-11-19T05:48:01.327Z,0.15
2022-11-19T05:48:32.714Z,0.20
2022-11-19T05:49:04.107Z,0.41
2022-11-19T05:49:35.527Z,0.30
2022-11-19T05:50:06.923Z,0.16
2022-11-19T05:50:38.329Z,0.19
2022-11-19T05:51:09.777Z,0.30
2022-11-19T05:51:41.167Z,0.32
2022-11-19T05:52:12.564Z,0.19
2022-11-19T05:52:43.957Z,0.24
2022-11-19T05:53:15.351Z,0.34
2022-11-19T05:53:46.807Z,0.24
2022-11-19T05:54:18.303Z,0.20
2022-11-19T05:54:49.749Z,0.15
2022-11-19T05:55:21.158Z,0.16
2022-11-19T05:55:52.556Z,0.20
2022-11-19T05:56:24.053Z,0.16
2022-11-19T05:56:55.443Z,0.17
2022-11-19T05:57:26.838Z,0.16
2022-11-19T05:57:58.234Z,0.20
2022-11-19T05:58:29.623Z,0.54
2022-11-19T05:59:01.023Z,0.34
2022-11-19T05:59:32.434Z,0.19
2022-11-19T06:00:03.838Z,0.24
2022-11-19T06:00:35.233Z,0.25
2022-11-19T06:01:06.643Z,0.28
2022-11-19T06:01:38.096Z,0.26
2022-11-19T06:02:09.500Z,0.29
2022-11-19T06:02:40.972Z,0.21
2022-11-19T06:03:12.511Z,0.35
2022-11-19T06:03:43.979Z,0.14
2022-11-19T06:04:15.396Z,0.23
2022-11-19T06:04:46.775Z,0.41
2022-11-19T06:05:18.180Z,0.28
2022-11-19T06:05:49.569Z,0.27
2022-11-19T06:06:21.044Z,0.33
2022-11-19T06:06:52.465Z,0.22
2022-11-19T06:07:23.913Z,0.41
2022-11-19T06:07:55.383Z,0.36
2022-11-19T06:08:26.777Z,0.36
2022-11-19T06:08:58.167Z,0.23
2022-11-19T06:09:29.574Z,0.32
2022-11-19T06:10:00.969Z,0.33
2022-11-19T06:10:32.364Z,0.35
2022-11-19T06:11:03.928Z,0.37
2022-11-19T06:11:35.320Z,0.25
2022-11-19T06:12:06.849Z,0.44
2022-11-19T06:12:42.460Z,0.42
2022-11-19T06:13:16.644Z,0.43
2022-11-19T06:13:48.036Z,0.30
2022-11-19T06:14:19.426Z,0.33
2022-11-19T06:14:50.831Z,0.52
2022-11-19T06:15:22.244Z,0.48
2022-11-19T06:15:53.627Z,0.38
2022-11-19T06:16:25.032Z,0.28
2022-11-19T06:16:56.427Z,0.44
2022-11-19T06:17:27.974Z,0.29
2022-11-19T06:17:59.385Z,0.42
2022-11-19T06:18:30.776Z,0.51
2022-11-19T06:19:02.177Z,0.48
2022-11-19T06:19:33.563Z,0.68
2022-11-19T06:20:05.006Z,0.54
2022-11-19T06:20:36.405Z,0.32
2022-11-19T06:21:11.985Z,0.33
2022-11-19T06:21:43.738Z,0.41
2022-11-19T06:22:15.205Z,0.65
2022-11-19T06:22:46.724Z,0.39
2022-11-19T06:23:18.118Z,0.41
2022-11-19T06:23:49.531Z,0.58
2022-11-19T06:24:20.922Z,0.41
2022-11-19T06:24:52.340Z,0.45
2022-11-19T06:25:23.829Z,0.50
2022-11-19T06:25:55.252Z,0.56
2022-11-19T06:26:26.662Z,0.63
2022-11-19T06:26:58.053Z,0.58
2022-11-19T06:27:29.447Z,0.39
2022-11-19T06:28:00.983Z,0.78
2022-11-19T06:28:32.381Z,0.58
2022-11-19T06:29:03.788Z,0.70
2022-11-19T06:29:35.181Z,0.53
2022-11-19T06:30:06.571Z,0.49
2022-11-19T06:30:37.965Z,0.61
2022-11-19T06:31:09.361Z,0.61
2022-11-19T06:31:40.760Z,0.75
2022-11-19T06:32:12.152Z,0.63
2022-11-19T06:32:43.535Z,0.56
2022-11-19T06:33:15.051Z,0.64
2022-11-19T06:33:46.454Z,0.60
2022-11-19T06:34:17.866Z,0.70
2022-11-19T06:34:49.254Z,0.50
2022-11-19T06:35:20.670Z,0.72
2022-11-19T06:35:52.080Z,0.64
2022-11-19T06:36:26.179Z,0.39
2022-11-19T06:36:58.982Z,0.46
2022-11-19T06:37:30.385Z,0.51
2022-11-19T06:38:01.808Z,0.42
2022-11-19T06:38:33.328Z,0.60
2022-11-19T06:39:04.714Z,0.56
2022-11-19T06:39:36.097Z,0.58
2022-11-19T06:40:07.488Z,0.71
2022-11-19T06:40:38.905Z,0.67
2022-11-19T06:41:10.317Z,0.71
2022-11-19T06:41:41.732Z,0.56
2022-11-19T06:42:13.138Z,0.59
2022-11-19T06:42:49.813Z,0.52
2022-11-19T06:43:22.310Z,0.52
2022-11-19T06:43:53.721Z,0.59
2022-11-19T06:44:25.140Z,0.72
2022-11-19T06:44:56.542Z,0.49
2022-11-19T06:45:27.951Z,0.57
2022-11-19T06:45:59.361Z,0.54
2022-11-19T06:46:30.747Z,0.44
2022-11-19T06:47:02.168Z,0.48
2022-11-19T06:47:33.554Z,0.57
2022-11-19T06:48:04.962Z,0.62
2022-11-19T06:48:36.352Z,0.64
2022-11-19T06:49:07.870Z,0.59
2022-11-19T06:49:39.259Z,0.50
2022-11-19T06:50:10.662Z,0.52
2022-11-19T06:50:42.069Z,0.54
2022-11-19T06:51:13.487Z,0.50
2022-11-19T06:51:44.896Z,0.73
2022-11-19T06:52:16.314Z,0.46
2022-11-19T06:52:47.704Z,0.65
2022-11-19T06:53:19.103Z,0.64
2022-11-19T06:53:50.498Z,0.68
2022-11-19T06:54:21.945Z,0.70
2022-11-19T06:54:53.339Z,0.46
2022-11-19T06:55:24.739Z,0.57
2022-11-19T06:55:56.132Z,0.58
2022-11-19T06:56:27.531Z,0.65
2022-11-19T06:56:58.950Z,0.64
2022-11-19T06:57:30.331Z,0.54
2022-11-19T06:58:01.788Z,0.44
2022-11-19T06:58:33.175Z,0.59
2022-11-19T06:59:04.569Z,0.83
2022-11-19T06:59:35.957Z,0.52